createdAt,value
2023-05-15T00:00:58.491Z,100852.69
2023-05-15T00:03:26.257Z,100850.14
2023-05-15T00:05:53.175Z,100848.03
2023-05-15T00:08:20.103Z,100847.46
2023-05-15T00:10:57.433Z,100843.77
2023-05-15T00:13:28.190Z,100845.26
2023-05-15T00:15:55.369Z,100843.64
2023-05-15T00:18:22.421Z,100843.99
2023-05-15T00:20:49.565Z,100840.21
2023-05-15T00:23:16.375Z,100845.10
2023-05-15T00:25:43.357Z,100842.79
2023-05-15T00:28:10.301Z,100842.33
2023-05-15T00:30:37.352Z,100845.73
2023-05-15T00:33:04.352Z,100845.91
2023-05-15T00:35:32.382Z,100848.34
2023-05-15T00:37:59.320Z,100852.20
2023-05-15T00:40:26.264Z,100854.37
2023-05-15T00:42:53.327Z,100853.93
2023-05-15T00:45:20.394Z,100851.45
2023-05-15T00:47:47.466Z,100850.48
2023-05-15T00:50:14.458Z,100848.70
2023-05-15T00:52:41.378Z,100849.53
2023-05-15T00:55:09.086Z,100844.20
2023-05-15T00:57:35.976Z,100845.63
2023-05-15T01:00:10.507Z,100842.90
2023-05-15T01:02:38.107Z,100840.55
2023-05-15T01:05:07.700Z,100836.45
2023-05-15T01:07:36.114Z,100833.33
2023-05-15T01:10:04.440Z,100830.95
2023-05-15T01:12:32.226Z,100832.46
2023-05-15T01:14:59.044Z,100832.46
2023-05-15T01:17:26.178Z,100832.51
2023-05-15T01:19:54.221Z,100837.34
2023-05-15T01:22:30.820Z,100835.44
2023-05-15T01:25:16.357Z,100830.40
2023-05-15T01:28:33.681Z,100832.63
2023-05-15T01:31:14.442Z,100831.65
2023-05-15T01:33:43.199Z,100836.11
2023-05-15T01:36:31.582Z,100837.57
2023-05-15T01:38:59.905Z,100834.02
2023-05-15T01:41:31.735Z,100836.18
2023-05-15T01:44:20.384Z,100838.49
2023-05-15T01:46:50.539Z,100844.29
2023-05-15T01:49:18.989Z,100842.88
2023-05-15T01:51:47.392Z,100842.07
2023-05-15T01:54:14.767Z,100836.08
2023-05-15T01:56:42.117Z,100835.11
2023-05-15T01:59:09.021Z,100830.08
2023-05-15T02:01:35.913Z,100825.09
2023-05-15T02:04:02.823Z,100824.33
2023-05-15T02:06:31.312Z,100825.89
2023-05-15T02:08:58.117Z,100826.64
2023-05-15T02:11:25.059Z,100825.56
2023-05-15T02:13:52.409Z,100823.67
2023-05-15T02:16:19.645Z,100822.91
2023-05-15T02:18:46.898Z,100823.09
2023-05-15T02:21:14.363Z,100823.33
2023-05-15T02:23:42.462Z,100820.30
2023-05-15T02:26:21.666Z,100823.19
2023-05-15T02:29:00.902Z,100827.34
2023-05-15T02:32:06.114Z,100826.83
2023-05-15T02:34:52.678Z,100826.13
2023-05-15T02:37:24.948Z,100827.16
2023-05-15T02:39:54.572Z,100829.35
2023-05-15T02:42:21.526Z,100833.78
2023-05-15T02:44:48.871Z,100834.95
2023-05-15T02:47:15.927Z,100836.84
2023-05-15T02:49:42.945Z,100840.13
2023-05-15T02:52:10.198Z,100831.85
2023-05-15T02:54:37.042Z,100831.89
2023-05-15T02:57:04.945Z,100831.02
2023-05-15T02:59:32.263Z,100829.55
2023-05-15T03:01:59.212Z,100828.06
2023-05-15T03:04:26.045Z,100826.27
2023-05-15T03:06:53.100Z,100825.86
2023-05-15T03:09:20.467Z,100825.75
2023-05-15T03:11:47.524Z,100822.53
2023-05-15T03:14:14.835Z,100822.73
2023-05-15T03:16:42.318Z,100824.13
2023-05-15T03:19:09.591Z,100824.89
2023-05-15T03:21:36.537Z,100820.38
2023-05-15T03:24:03.466Z,100821.39
2023-05-15T03:26:30.308Z,100823.27
2023-05-15T03:28:57.987Z,100823.73
2023-05-15T03:31:25.137Z,100828.77
2023-05-15T03:33:52.002Z,100832.73
2023-05-15T03:36:18.884Z,100836.90
2023-05-15T03:38:45.746Z,100836.11
2023-05-15T03:41:12.676Z,100837.08
2023-05-15T03:43:39.670Z,100833.92
2023-05-15T03:46:06.620Z,100835.86
2023-05-15T03:48:33.502Z,100839.32
2023-05-15T03:51:00.546Z,100839.23
2023-05-15T03:53:30.909Z,100841.04
2023-05-15T03:55:58.101Z,100837.48
2023-05-15T03:58:26.331Z,100836.46
2023-05-15T04:00:53.394Z,100837.98
2023-05-15T04:03:20.674Z,100834.97
2023-05-15T04:05:50.366Z,100840.84
2023-05-15T04:08:17.247Z,100839.69
2023-05-15T04:10:44.055Z,100836.44
2023-05-15T04:13:10.941Z,100834.75
2023-05-15T04:15:37.863Z,100837.05
2023-05-15T04:18:04.936Z,100838.11
2023-05-15T04:20:33.828Z,100839.75
2023-05-15T04:23:35.216Z,100840.44
2023-05-15T04:26:05.445Z,100841.48
2023-05-15T04:28:32.684Z,100844.27
2023-05-15T04:30:59.633Z,100845.20
2023-05-15T04:33:26.683Z,100842.77
2023-05-15T04:35:53.625Z,100839.30
2023-05-15T04:38:20.408Z,100836.49
2023-05-15T04:40:47.524Z,100832.96
2023-05-15T04:43:14.574Z,100831.12
2023-05-15T04:45:41.480Z,100834.78
2023-05-15T04:48:08.625Z,100833.49
2023-05-15T04:50:37.045Z,100836.30
2023-05-15T04:53:03.916Z,100832.38
2023-05-15T04:55:35.616Z,100832.39
2023-05-15T04:58:02.588Z,100830.09
2023-05-15T05:00:29.572Z,100829.42
2023-05-15T05:02:56.663Z,100825.23
2023-05-15T05:05:23.896Z,100825.53
2023-05-15T05:07:52.220Z,100827.64
2023-05-15T05:10:19.366Z,100824.41
2023-05-15T05:12:46.367Z,100823.05
2023-05-15T05:15:13.259Z,100821.58
2023-05-15T05:17:40.468Z,100819.20
2023-05-15T05:20:12.940Z,100815.80
2023-05-15T05:22:40.942Z,100811.52
2023-05-15T05:25:08.306Z,100808.69
2023-05-15T05:27:35.256Z,100813.48
2023-05-15T05:30:02.364Z,100814.06
2023-05-15T05:32:29.420Z,100815.59
2023-05-15T05:34:56.410Z,100814.98
2023-05-15T05:37:23.633Z,100817.48
2023-05-15T05:39:50.606Z,100818.55
2023-05-15T05:42:28.947Z,100820.91
2023-05-15T05:44:55.960Z,100817.28
2023-05-15T05:48:14.997Z,100812.55
2023-05-15T05:50:45.148Z,100812.05
2023-05-15T05:53:12.203Z,100811.22
2023-05-15T05:55:39.138Z,100811.94
2023-05-15T05:58:14.558Z,100808.79
2023-05-15T06:00:45.217Z,100809.80
2023-05-15T06:03:18.374Z,100808.50
2023-05-15T06:05:51.313Z,100806.57
2023-05-15T06:08:18.587Z,100804.65
2023-05-15T06:10:48.562Z,100806.31
2023-05-15T06:13:21.244Z,100806.92
2023-05-15T06:15:48.195Z,100808.53
2023-05-15T06:18:15.165Z,100808.46
2023-05-15T06:20:45.378Z,100808.60
2023-05-15T06:23:12.693Z,100807.31
2023-05-15T06:25:46.847Z,100810.16
2023-05-15T06:28:17.467Z,100805.67
2023-05-15T06:30:51.119Z,100805.33
2023-05-15T06:33:20.274Z,100803.11
2023-05-15T06:35:49.511Z,100801.21
2023-05-15T06:38:17.129Z,100801.24
2023-05-15T06:40:44.128Z,100800.66
2023-05-15T06:43:11.227Z,100792.72
2023-05-15T06:45:44.623Z,100789.99
2023-05-15T06:48:12.333Z,100791.42
2023-05-15T06:54:29.836Z,100788.19
2023-05-15T06:57:02.714Z,100787.47
2023-05-15T06:59:29.690Z,100784.34
2023-05-15T07:01:56.589Z,100781.80
2023-05-15T07:04:23.553Z,100782.48
2023-05-15T07:07:25.686Z,100783.66
2023-05-15T07:09:52.635Z,100779.89
2023-05-15T07:12:19.659Z,100780.30
2023-05-15T07:14:46.558Z,100779.12
2023-05-15T07:17:14.381Z,100780.85
2023-05-15T07:20:06.912Z,100781.52
2023-05-15T07:22:41.531Z,100775.46
2023-05-15T07:25:57.365Z,100770.20
2023-05-15T07:31:02.842Z,100765.65
2023-05-15T07:33:30.243Z,100769.28
2023-05-15T07:35:57.050Z,100769.98
2023-05-15T07:38:24.338Z,100765.55
2023-05-15T07:40:51.663Z,100764.55
2023-05-15T07:43:28.145Z,100761.58
2023-05-15T07:45:58.198Z,100760.05
2023-05-15T07:48:29.087Z,100760.88
2023-05-15T07:51:17.823Z,100755.45
2023-05-15T07:54:04.909Z,100751.58
2023-05-15T07:56:32.643Z,100750.27
2023-05-15T07:59:02.296Z,100744.86
2023-05-15T08:01:30.767Z,100745.02
2023-05-15T08:03:59.655Z,100742.90
2023-05-15T08:06:26.523Z,100741.34
2023-05-15T08:08:53.731Z,100737.05
2023-05-15T08:11:21.721Z,100733.48
2023-05-15T08:13:48.696Z,100733.15
2023-05-15T08:16:15.901Z,100730.16
2023-05-15T08:18:42.816Z,100734.92
2023-05-15T08:21:10.088Z,100731.55
2023-05-15T08:23:37.145Z,100729.46
2023-05-15T08:26:04.042Z,100729.63
2023-05-15T08:28:31.163Z,100734.52
2023-05-15T08:30:58.121Z,100726.91
2023-05-15T08:33:25.081Z,100723.86
2023-05-15T08:35:52.684Z,100720.69
2023-05-15T08:38:19.613Z,100718.55
2023-05-15T08:40:47.284Z,100721.05
2023-05-15T08:43:16.820Z,100724.21
2023-05-15T08:45:44.034Z,100718.15
2023-05-15T08:48:14.049Z,100716.45
2023-05-15T08:50:41.219Z,100715.67
2023-05-15T08:53:08.344Z,100716.27
2023-05-15T08:55:35.192Z,100711.61
2023-05-15T08:58:02.028Z,100710.49
2023-05-15T09:00:29.068Z,100704.39
2023-05-15T09:02:59.714Z,100704.77
2023-05-15T09:05:27.545Z,100705.90
2023-05-15T09:07:57.348Z,100707.20
2023-05-15T09:10:24.245Z,100706.71
2023-05-15T09:12:52.020Z,100705.06
2023-05-15T09:15:22.228Z,100701.42
2023-05-15T09:17:49.706Z,100696.88
2023-05-15T09:20:35.613Z,100696.86
2023-05-15T09:23:03.783Z,100694.25
2023-05-15T09:25:44.843Z,100690.20
2023-05-15T09:28:25.681Z,100687.31
2023-05-15T09:30:57.566Z,100687.74
2023-05-15T09:33:31.885Z,100685.50
2023-05-15T09:35:59.174Z,100687.02
2023-05-15T09:38:26.005Z,100684.71
2023-05-15T09:41:08.140Z,100681.30
2023-05-15T09:43:39.026Z,100681.23
2023-05-15T09:46:06.597Z,100676.72
2023-05-15T09:48:34.723Z,100681.02
2023-05-15T09:51:02.357Z,100677.83
2023-05-15T09:53:29.282Z,100675.54
2023-05-15T09:55:56.409Z,100680.80
2023-05-15T09:58:23.593Z,100678.91
2023-05-15T10:00:50.688Z,100676.84
2023-05-15T10:03:21.165Z,100675.65
2023-05-15T10:05:48.337Z,100670.84
2023-05-15T10:08:16.368Z,100668.44
2023-05-15T10:10:43.884Z,100668.89
2023-05-15T10:13:11.176Z,100670.87
2023-05-15T10:15:38.112Z,100670.30
2023-05-15T10:18:05.244Z,100668.30
2023-05-15T10:20:35.685Z,100665.63
2023-05-15T10:23:04.536Z,100662.60
2023-05-15T10:25:40.797Z,100659.38
2023-05-15T10:28:11.730Z,100658.11
2023-05-15T10:30:38.896Z,100655.79
2023-05-15T10:33:06.870Z,100653.12
2023-05-15T10:35:39.272Z,100650.80
2023-05-15T10:38:06.653Z,100649.01
2023-05-15T10:40:33.978Z,100649.11
2023-05-15T10:43:01.803Z,100649.90
2023-05-15T10:45:29.460Z,100649.42
2023-05-15T10:47:56.432Z,100644.59
2023-05-15T10:50:23.467Z,100642.42
2023-05-15T10:52:53.623Z,100640.96
2023-05-15T10:55:20.557Z,100637.13
2023-05-15T10:57:47.748Z,100636.27
2023-05-15T11:00:24.236Z,100632.23
2023-05-15T11:02:54.030Z,100624.55
2023-05-15T11:05:21.109Z,100619.96
2023-05-15T11:08:18.464Z,100618.94
2023-05-15T11:10:45.267Z,100618.59
2023-05-15T11:13:12.214Z,100616.52
2023-05-15T11:15:43.571Z,100609.39
2023-05-15T11:18:10.768Z,100612.21
2023-05-15T11:20:43.108Z,100609.17
2023-05-15T11:23:10.066Z,100605.16
2023-05-15T11:25:37.415Z,100601.64
2023-05-15T11:28:04.649Z,100598.77
2023-05-15T11:30:41.463Z,100590.64
2023-05-15T11:33:10.530Z,100584.13
2023-05-15T11:35:37.709Z,100579.24
2023-05-15T11:38:11.573Z,100577.45
2023-05-15T11:40:52.725Z,100574.95
2023-05-15T11:43:26.627Z,100581.72
2023-05-15T11:46:03.173Z,100580.98
2023-05-15T11:48:39.538Z,100578.71
2023-05-15T11:51:08.517Z,100575.64
2023-05-15T11:53:35.522Z,100575.13
2023-05-15T11:56:02.493Z,100572.09
2023-05-15T11:58:29.315Z,100568.69
2023-05-15T12:00:56.497Z,100561.77
2023-05-15T12:03:28.202Z,100556.34
2023-05-15T12:05:59.616Z,100550.96
2023-05-15T12:08:34.075Z,100550.64
2023-05-15T12:11:01.266Z,100550.45
2023-05-15T12:13:28.341Z,100553.61
2023-05-15T12:15:55.812Z,100552.94
2023-05-15T12:18:23.398Z,100549.55
2023-05-15T12:20:51.977Z,100547.21
2023-05-15T12:23:21.086Z,100549.91
2023-05-15T12:25:48.067Z,100542.32
2023-05-15T12:28:15.066Z,100533.42
2023-05-15T12:30:42.336Z,100535.36
2023-05-15T12:33:10.318Z,100529.09
2023-05-15T12:35:38.259Z,100526.90
2023-05-15T12:38:05.892Z,100526.30
2023-05-15T12:40:36.871Z,100527.16
2023-05-15T12:43:07.421Z,100532.55
2023-05-15T12:45:36.372Z,100534.73
2023-05-15T12:48:03.729Z,100532.23
2023-05-15T12:50:32.583Z,100530.52
2023-05-15T12:53:01.469Z,100529.80
2023-05-15T12:55:38.099Z,100529.77
2023-05-15T12:58:12.233Z,100528.10
2023-05-15T13:00:40.673Z,100530.12
2023-05-15T13:03:13.527Z,100521.36
2023-05-15T13:05:47.279Z,100522.71
2023-05-15T13:08:48.138Z,100523.34
2023-05-15T13:11:15.141Z,100524.36
2023-05-15T13:13:51.544Z,100528.46
2023-05-15T13:16:22.478Z,100529.34
2023-05-15T13:18:49.474Z,100527.48
2023-05-15T13:21:16.608Z,100529.06
2023-05-15T13:23:43.804Z,100529.97
2023-05-15T13:26:16.418Z,100525.95
2023-05-15T13:28:47.039Z,100526.89
2023-05-15T13:31:20.116Z,100525.06
2023-05-15T13:33:49.770Z,100526.69
2023-05-15T13:36:16.569Z,100522.43
2023-05-15T13:38:43.377Z,100520.58
2023-05-15T13:41:10.375Z,100517.49
2023-05-15T13:43:37.221Z,100517.20
2023-05-15T13:46:04.682Z,100513.87
2023-05-15T13:48:32.078Z,100512.32
2023-05-15T13:50:58.862Z,100517.05
2023-05-15T13:53:25.767Z,100512.86
2023-05-15T13:55:53.115Z,100509.04
2023-05-15T13:58:20.028Z,100505.15
2023-05-15T14:00:47.318Z,100501.11
2023-05-15T14:03:15.214Z,100498.23
2023-05-15T14:05:42.445Z,100492.62
2023-05-15T14:08:09.476Z,100492.86
2023-05-15T14:10:37.410Z,100491.83
2023-05-15T14:13:04.472Z,100496.54
2023-05-15T14:15:34.424Z,100497.29
2023-05-15T14:25:37.812Z,100489.00
2023-05-15T14:28:05.109Z,100487.27
2023-05-15T14:30:32.010Z,100486.30
2023-05-15T14:33:00.314Z,100487.83
2023-05-15T14:35:27.236Z,100486.07
2023-05-15T14:37:54.156Z,100485.77
2023-05-15T14:40:22.364Z,100484.20
2023-05-15T14:42:51.953Z,100480.55
2023-05-15T14:45:18.901Z,100479.75
2023-05-15T14:47:45.984Z,100481.17
2023-05-15T14:50:12.854Z,100476.33
2023-05-15T14:52:39.936Z,100467.54
2023-05-15T14:55:09.167Z,100470.38
2023-05-15T14:57:37.730Z,100467.52
2023-05-15T15:00:06.753Z,100467.23
2023-05-15T15:02:36.579Z,100461.27
2023-05-15T15:05:04.672Z,100454.96
2023-05-15T15:07:31.736Z,100449.41
2023-05-15T15:10:23.777Z,100450.34
2023-05-15T15:12:54.049Z,100446.67
2023-05-15T15:15:21.047Z,100445.66
2023-05-15T15:17:48.029Z,100442.49
2023-05-15T15:20:16.101Z,100446.92
2023-05-15T15:22:42.963Z,100445.92
2023-05-15T15:25:22.330Z,100440.27
2023-05-15T15:27:49.334Z,100440.28
2023-05-15T15:30:16.458Z,100441.58
2023-05-15T15:32:44.657Z,100439.88
2023-05-15T15:35:11.814Z,100438.28
2023-05-15T15:37:39.154Z,100436.45
2023-05-15T15:40:08.201Z,100435.19
2023-05-15T15:42:35.089Z,100439.20
2023-05-15T15:45:02.014Z,100441.46
2023-05-15T15:47:32.401Z,100439.91
2023-05-15T15:49:59.809Z,100441.13
2023-05-15T15:52:26.956Z,100447.16
2023-05-15T15:54:53.992Z,100443.66
2023-05-15T15:57:21.362Z,100442.92
2023-05-15T15:59:49.426Z,100443.17
2023-05-15T16:02:16.874Z,100442.11
2023-05-15T16:04:47.743Z,100444.42
2023-05-15T16:07:17.641Z,100443.70
2023-05-15T16:10:00.230Z,100442.66
2023-05-15T16:12:46.752Z,100442.73
2023-05-15T16:15:23.279Z,100438.34
2023-05-15T16:20:54.350Z,100441.34
2023-05-15T16:23:22.816Z,100439.44
2023-05-15T16:25:49.653Z,100438.36
2023-05-15T16:28:16.604Z,100435.98
2023-05-15T16:30:49.427Z,100435.49
2023-05-15T16:33:20.063Z,100435.41
2023-05-15T16:35:47.388Z,100438.36
2023-05-15T16:38:14.725Z,100439.59
2023-05-15T16:40:41.670Z,100438.41
2023-05-15T16:43:08.544Z,100437.78
2023-05-15T16:45:35.471Z,100439.51
2023-05-15T16:48:02.489Z,100439.33
2023-05-15T16:50:35.003Z,100437.14
2023-05-15T16:53:02.566Z,100438.84
2023-05-15T16:55:29.591Z,100436.77
2023-05-15T16:57:56.525Z,100436.59
2023-05-15T17:00:23.538Z,100436.77
2023-05-15T17:03:37.399Z,100435.67
2023-05-15T17:06:05.257Z,100431.56
2023-05-15T17:08:32.865Z,100436.50
2023-05-15T17:10:59.714Z,100443.17
2023-05-15T17:13:27.735Z,100448.37
2023-05-15T17:16:01.270Z,100451.32
2023-05-15T17:18:34.898Z,100452.94
2023-05-15T17:21:08.471Z,100454.30
2023-05-15T17:23:35.717Z,100459.36
2023-05-15T17:26:04.282Z,100461.50
2023-05-15T17:28:31.482Z,100465.09
2023-05-15T17:30:58.399Z,100466.72
2023-05-15T17:33:25.763Z,100467.41
2023-05-15T17:35:53.982Z,100467.00
2023-05-15T17:38:24.479Z,100467.06
2023-05-15T17:41:19.776Z,100467.79
2023-05-15T17:43:46.664Z,100470.91
2023-05-15T17:46:19.563Z,100471.88
2023-05-15T17:48:46.589Z,100475.83
2023-05-15T17:51:13.509Z,100482.49
2023-05-15T17:53:40.381Z,100485.27
2023-05-15T17:56:07.382Z,100489.17
2023-05-15T17:58:34.258Z,100490.29
2023-05-15T18:01:01.419Z,100492.41
2023-05-15T18:03:28.510Z,100494.55
2023-05-15T18:05:55.607Z,100496.67
2023-05-15T18:08:22.630Z,100501.66
2023-05-15T18:10:49.753Z,100502.79
2023-05-15T18:13:17.181Z,100501.73
2023-05-15T18:15:44.269Z,100503.63
2023-05-15T18:18:11.393Z,100508.70
2023-05-15T18:20:38.430Z,100511.19
2023-05-15T18:23:05.653Z,100511.84
2023-05-15T18:25:36.926Z,100515.67
2023-05-15T18:28:04.715Z,100521.11
2023-05-15T18:30:31.580Z,100522.64
2023-05-15T18:32:58.458Z,100526.59
2023-05-15T18:35:25.482Z,100525.45
2023-05-15T18:37:52.431Z,100526.34
2023-05-15T18:40:19.503Z,100527.85
2023-05-15T18:42:46.709Z,100533.42
2023-05-15T18:45:13.741Z,100535.04
2023-05-15T18:47:40.625Z,100534.20
2023-05-15T18:50:08.276Z,100533.04
2023-05-15T18:52:35.099Z,100537.58
2023-05-15T18:55:02.078Z,100542.16
2023-05-15T18:57:29.023Z,100542.82
2023-05-15T18:59:56.010Z,100542.60
2023-05-15T19:02:24.574Z,100543.36
2023-05-15T19:04:53.163Z,100539.48
2023-05-15T19:07:20.053Z,100537.17
2023-05-15T19:09:46.928Z,100533.94
2023-05-15T19:12:13.852Z,100533.75
2023-05-15T19:14:40.669Z,100530.59
2023-05-15T19:17:07.546Z,100529.66
2023-05-15T19:19:34.382Z,100530.86
2023-05-15T19:22:01.317Z,100530.36
2023-05-15T19:24:28.150Z,100529.02
2023-05-15T19:26:55.247Z,100531.38
2023-05-15T19:29:22.249Z,100532.14
2023-05-15T19:31:49.783Z,100533.34
2023-05-15T19:34:16.770Z,100532.40
2023-05-15T19:36:45.952Z,100533.27
2023-05-15T19:39:12.984Z,100540.98
2023-05-15T19:41:39.826Z,100543.77
2023-05-15T19:44:08.265Z,100542.42
2023-05-15T19:59:40.276Z,100552.97
2023-05-15T20:02:09.782Z,100556.76
2023-05-15T20:04:37.081Z,100563.36
2023-05-15T20:07:04.020Z,100566.88
2023-05-15T20:09:30.771Z,100568.26
2023-05-15T20:11:57.698Z,100569.07
2023-05-15T20:14:24.370Z,100570.25
2023-05-15T20:16:50.979Z,100568.68
2023-05-15T20:19:21.306Z,100573.87
2023-05-15T20:21:48.179Z,100574.28
2023-05-15T20:24:16.648Z,100576.54
2023-05-15T20:26:43.848Z,100582.87
2023-05-15T20:29:10.778Z,100583.53
2023-05-15T20:31:39.546Z,100581.48
2023-05-15T20:34:07.579Z,100584.90
2023-05-15T20:36:38.236Z,100586.27
2023-05-15T20:39:05.361Z,100588.42
2023-05-15T20:41:33.135Z,100587.98
2023-05-15T20:43:59.961Z,100587.36
2023-05-15T20:46:29.693Z,100591.52
2023-05-15T20:48:57.017Z,100591.34
2023-05-15T20:51:24.012Z,100590.88
2023-05-15T20:53:50.700Z,100589.39
2023-05-15T20:56:17.380Z,100590.55
2023-05-15T20:58:44.154Z,100585.17
2023-05-15T21:01:10.893Z,100584.40
2023-05-15T21:03:37.902Z,100581.48
2023-05-15T21:06:04.984Z,100580.75
2023-05-15T21:08:32.963Z,100581.19
2023-05-15T21:11:00.398Z,100588.31
2023-05-15T21:13:27.561Z,100591.33
2023-05-15T21:15:54.185Z,100591.64
2023-05-15T21:18:22.436Z,100591.41
2023-05-15T21:20:49.093Z,100591.39
2023-05-15T21:23:16.078Z,100588.95
2023-05-15T21:25:42.928Z,100587.44
2023-05-15T21:28:09.701Z,100583.02
2023-05-15T21:30:36.535Z,100578.48
2023-05-15T21:33:03.355Z,100580.20
2023-05-15T21:35:31.185Z,100582.39
2023-05-15T21:37:58.806Z,100583.52
2023-05-15T21:40:25.871Z,100584.22
2023-05-15T21:42:52.789Z,100589.52
2023-05-15T21:45:20.038Z,100591.48
2023-05-15T21:47:46.672Z,100593.95
2023-05-15T21:50:13.794Z,100596.15
2023-05-15T21:52:40.512Z,100594.10
2023-05-15T21:55:07.625Z,100593.13
2023-05-15T21:57:34.521Z,100593.91
2023-05-15T22:00:01.698Z,100597.98
2023-05-15T22:02:28.831Z,100594.95
2023-05-15T22:04:55.628Z,100594.02
2023-05-15T22:07:22.293Z,100598.27
2023-05-15T22:09:49.077Z,100596.42
2023-05-15T22:12:15.956Z,100596.02
2023-05-15T22:14:54.645Z,100590.30
2023-05-15T22:17:26.500Z,100584.75
2023-05-15T22:19:53.401Z,100582.39
2023-05-15T22:22:20.225Z,100582.89
2023-05-15T22:24:47.350Z,100583.38
2023-05-15T22:27:15.942Z,100584.52
2023-05-15T22:29:42.718Z,100583.09
2023-05-15T22:32:09.524Z,100580.92
2023-05-15T22:34:36.348Z,100581.32
2023-05-15T22:37:03.124Z,100582.77
2023-05-15T22:39:30.274Z,100581.38
2023-05-15T22:41:57.191Z,100576.86
2023-05-15T22:44:23.894Z,100574.02
2023-05-15T22:46:50.772Z,100573.70
2023-05-15T22:49:24.621Z,100572.94
2023-05-15T22:51:52.779Z,100572.48
2023-05-15T22:54:23.151Z,100569.38
2023-05-15T22:56:51.231Z,100569.17
2023-05-15T22:59:18.041Z,100564.14
2023-05-15T23:01:45.785Z,100558.79
2023-05-15T23:04:12.692Z,100554.01
2023-05-15T23:06:40.455Z,100553.45
2023-05-15T23:09:10.045Z,100554.08
2023-05-15T23:11:37.339Z,100555.73
2023-05-15T23:14:04.387Z,100549.15
2023-05-15T23:16:31.233Z,100549.27
2023-05-15T23:18:58.302Z,100550.10
2023-05-15T23:21:25.176Z,100546.98
2023-05-15T23:23:52.009Z,100547.30
2023-05-15T23:26:18.811Z,100546.27
2023-05-15T23:28:45.552Z,100540.90
2023-05-15T23:31:13.329Z,100541.05
2023-05-15T23:33:40.518Z,100540.21
2023-05-15T23:36:07.436Z,100538.22
2023-05-15T23:38:34.360Z,100537.89
2023-05-15T23:41:01.402Z,100534.46
2023-05-15T23:43:28.361Z,100532.27
2023-05-15T23:45:55.336Z,100533.67
2023-05-15T23:48:22.047Z,100532.55
2023-05-15T23:50:48.987Z,100531.81
2023-05-15T23:53:15.725Z,100531.40
2023-05-15T23:55:42.454Z,100528.27
2023-05-15T23:58:09.206Z,100530.38
